Time;durP1;ratioP1;P1;durP2;ratioP2;P2;SDS_P1;SDS_P2;PMS_P1;PMS_P2;Temp;Humidity;BMP_temperature;BMP_pressure;BME280_temperature;BME280_humidity;BME280_pressure;Samples;Min_cycle;Max_cycle;Signal;HPM_P1;HPM_P2
2024/01/01 00:00:14;;;;;;;43.60;31.57;;;;;;;8.81;54.57;96663.84;5072143;28;20344;-73
2024/01/01 00:02:40;;;;;;;48.93;35.27;;;;;;;8.93;54.11;96672.25;5075820;28;20174;-73
2024/01/01 00:05:07;;;;;;;30.17;22.90;;;;;;;9.02;53.66;96670.47;5044794;28;22178;-73
2024/01/01 00:07:32;;;;;;;28.23;18.70;;;;;;;9.09;53.74;96662.84;5061840;28;20211;-72
2024/01/01 00:09:58;;;;;;;28.93;17.90;;;;;;;9.02;53.27;96655.63;5078313;28;21008;-71
2024/01/01 00:12:23;;;;;;;21.50;15.30;;;;;;;9.07;53.32;96658.59;5066608;28;20195;-73
2024/01/01 00:14:49;;;;;;;27.27;14.60;;;;;;;9.14;53.54;96668.44;5069454;28;20186;-72
2024/01/01 00:17:14;;;;;;;24.90;12.83;;;;;;;9.25;53.55;96662.13;5078609;28;20214;-73
2024/01/01 00:19:40;;;;;;;20.03;14.23;;;;;;;9.23;52.87;96664.88;5071234;28;20217;-73
2024/01/01 00:22:06;;;;;;;13.80;10.10;;;;;;;9.21;53.02;96666.81;5086838;28;20277;-74
2024/01/01 00:24:31;;;;;;;15.53;9.27;;;;;;;9.29;53.13;96664.25;5085689;28;20189;-74
2024/01/01 00:26:56;;;;;;;15.43;9.80;;;;;;;9.29;52.78;96666.88;5072748;28;20687;-72
2024/01/01 00:29:24;;;;;;;15.87;10.27;;;;;;;9.20;52.96;96663.41;5076431;28;20189;-73
2024/01/01 00:31:50;;;;;;;16.30;10.17;;;;;;;9.29;53.52;96661.63;5070065;28;20580;-73
2024/01/01 00:34:15;;;;;;;18.10;9.97;;;;;;;9.31;53.27;96661.47;5079945;28;20431;-72
2024/01/01 00:36:47;;;;;;;16.80;10.37;;;;;;;9.26;52.96;96656.72;5080485;28;20216;-73
2024/01/01 00:39:18;;;;;;;20.40;10.30;;;;;;;9.25;53.19;96660.31;5053452;28;20189;-72
2024/01/01 00:41:47;;;;;;;16.10;9.77;;;;;;;9.24;53.19;96663.09;5078317;28;20929;-71
2024/01/01 00:44:12;;;;;;;21.97;9.90;;;;;;;9.31;52.89;96653.63;5067895;28;20183;-72
2024/01/01 00:46:38;;;;;;;16.83;10.23;;;;;;;9.29;53.29;96655.56;5082518;28;20434;-71
2024/01/01 00:49:03;;;;;;;17.03;10.07;;;;;;;9.33;52.97;96655.09;5075372;28;20722;-73
2024/01/01 00:51:29;;;;;;;15.10;9.03;;;;;;;9.31;52.89;96638.78;5074625;28;20328;-73
2024/01/01 00:53:54;;;;;;;15.77;9.80;;;;;;;9.23;52.89;96646.56;5077261;28;20180;-72
2024/01/01 00:56:19;;;;;;;12.93;9.13;;;;;;;9.30;53.07;96652.00;5073975;28;20830;-72
2024/01/01 00:58:45;;;;;;;17.17;9.17;;;;;;;9.21;53.19;96635.44;5082332;28;20228;-74
2024/01/01 01:01:10;;;;;;;13.80;8.70;;;;;;;9.32;53.01;96647.44;5069365;28;20186;-71
2024/01/01 01:03:36;;;;;;;15.50;9.57;;;;;;;9.30;52.89;96639.75;5071374;28;20273;-72
2024/01/01 01:06:05;;;;;;;14.83;9.43;;;;;;;9.32;53.13;96650.88;5075656;28;20297;-73
2024/01/01 01:08:31;;;;;;;18.00;9.70;;;;;;;9.18;53.26;96654.88;5070913;28;20178;-72
2024/01/01 01:10:56;;;;;;;16.07;10.53;;;;;;;9.22;53.06;96644.94;5077366;28;20420;-72
2024/01/01 01:13:21;;;;;;;15.03;9.63;;;;;;;9.16;53.27;96643.75;5080147;28;20193;-73
2024/01/01 01:15:48;;;;;;;17.90;10.90;;;;;;;9.16;53.11;96642.97;5069289;28;20862;-72
2024/01/01 01:18:13;;;;;;;17.37;10.10;;;;;;;9.18;53.20;96648.84;5077079;28;20852;-73
2024/01/01 01:20:38;;;;;;;16.17;9.67;;;;;;;9.20;53.15;96647.72;5068246;28;20512;-72
2024/01/01 01:23:04;;;;;;;15.20;9.50;;;;;;;9.30;53.28;96652.81;5080796;28;20671;-72
2024/01/01 01:25:31;;;;;;;20.70;10.00;;;;;;;9.40;53.35;96668.38;5070371;28;20206;-73
2024/01/01 01:27:57;;;;;;;16.00;10.73;;;;;;;9.47;52.66;96668.56;5082016;28;20256;-73
2024/01/01 01:30:22;;;;;;;16.60;9.80;;;;;;;9.49;52.89;96671.84;5071795;28;20507;-73
2024/01/01 01:32:48;;;;;;;16.80;10.40;;;;;;;9.44;52.97;96674.94;5075305;28;20428;-72
2024/01/01 01:35:13;;;;;;;19.47;10.50;;;;;;;9.48;53.54;96670.19;5081677;28;20262;-72
2024/01/01 01:37:39;;;;;;;23.23;9.90;;;;;;;9.55;53.01;96673.00;5074099;28;20263;-72
2024/01/01 01:40:05;;;;;;;13.20;8.33;;;;;;;9.50;53.17;96657.78;5069791;28;20175;-74
2024/01/01 01:42:30;;;;;;;12.63;8.00;;;;;;;9.44;53.77;96661.84;5073752;28;20274;-73
2024/01/01 01:44:56;;;;;;;11.40;7.07;;;;;;;9.48;53.36;96657.94;5074374;28;20540;-73
2024/01/01 01:47:23;;;;;;;16.30;8.07;;;;;;;9.43;53.75;96669.88;5073223;28;20557;-73
2024/01/01 01:49:48;;;;;;;11.77;6.30;;;;;;;9.19;54.65;96660.94;5055884;28;20177;-73
2024/01/01 01:52:14;;;;;;;12.63;6.20;;;;;;;9.20;55.06;96667.78;5076750;28;20423;-71
2024/01/01 01:54:40;;;;;;;10.47;6.27;;;;;;;9.09;55.79;96671.53;5063794;28;20260;-73
2024/01/01 01:57:08;;;;;;;11.60;6.60;;;;;;;9.09;55.25;96663.69;5064908;28;20509;-72
2024/01/01 01:59:34;;;;;;;16.53;7.53;;;;;;;9.21;55.29;96665.03;5041409;28;20201;-73
2024/01/01 02:01:59;;;;;;;15.23;7.00;;;;;;;9.34;54.71;96659.34;5079317;28;20455;-72
2024/01/01 02:04:25;;;;;;;10.90;6.23;;;;;;;9.40;55.40;96667.56;5081676;28;20174;-73
2024/01/01 02:06:50;;;;;;;10.93;7.00;;;;;;;9.44;55.27;96666.28;5084255;28;20197;-72
2024/01/01 02:09:16;;;;;;;11.27;5.80;;;;;;;9.48;54.68;96660.56;5084060;28;20595;-72
2024/01/01 02:11:42;;;;;;;17.57;6.77;;;;;;;9.34;55.10;96663.78;5052683;28;20182;-72
2024/01/01 02:14:08;;;;;;;12.80;5.63;;;;;;;9.41;54.98;96658.75;5077165;28;20185;-73
2024/01/01 02:16:34;;;;;;;13.73;6.20;;;;;;;9.37;55.29;96660.84;5076355;28;20475;-72
2024/01/01 02:18:59;;;;;;;12.20;6.50;;;;;;;9.34;54.86;96661.97;5051632;28;20425;-72
2024/01/01 02:21:25;;;;;;;9.33;4.90;;;;;;;9.33;55.37;96660.34;5074642;28;20173;-72
2024/01/01 02:23:51;;;;;;;10.77;6.40;;;;;;;9.37;55.61;96651.19;5044846;28;20236;-72
2024/01/01 02:26:16;;;;;;;10.80;5.63;;;;;;;9.22;56.10;96656.22;5081747;28;20522;-73
2024/01/01 02:28:42;;;;;;;8.27;5.67;;;;;;;9.37;55.40;96659.06;5083185;28;20266;-73
2024/01/01 02:31:07;;;;;;;9.60;5.53;;;;;;;9.45;55.09;96662.69;5070054;28;20265;-70
2024/01/01 02:33:33;;;;;;;10.23;5.33;;;;;;;9.50;55.07;96663.84;5078343;28;20183;-71
2024/01/01 02:35:58;;;;;;;8.67;4.73;;;;;;;9.53;55.36;96665.31;5079210;28;20194;-72
2024/01/01 02:38:24;;;;;;;11.03;6.00;;;;;;;9.36;55.51;96660.03;5079425;28;20201;-74
2024/01/01 02:40:49;;;;;;;11.20;5.57;;;;;;;9.35;55.25;96653.16;5078820;28;20217;-71
2024/01/01 02:43:14;;;;;;;9.00;5.37;;;;;;;9.46;55.34;96656.44;5076030;28;20185;-72
2024/01/01 02:45:40;;;;;;;7.80;5.00;;;;;;;9.49;55.27;96653.53;5054822;28;20709;-72
2024/01/01 02:48:06;;;;;;;10.67;6.23;;;;;;;9.44;55.12;96658.44;5059438;28;20174;-72
2024/01/01 02:50:33;;;;;;;10.13;5.30;;;;;;;9.52;55.19;96656.63;5082578;28;20227;-73
2024/01/01 02:52:58;;;;;;;9.17;4.17;;;;;;;9.56;55.26;96664.16;5058839;28;20759;-71
2024/01/01 02:55:24;;;;;;;8.20;4.70;;;;;;;9.58;55.52;96660.41;5074709;28;20423;-71
2024/01/01 02:57:49;;;;;;;8.50;5.53;;;;;;;9.64;55.07;96656.38;5075786;28;20291;-72
2024/01/01 03:00:15;;;;;;;9.43;5.80;;;;;;;9.60;55.22;96661.06;5085339;28;20654;-71
2024/01/01 03:02:41;;;;;;;7.53;5.60;;;;;;;9.59;54.92;96659.44;5050315;28;20270;-69
2024/01/01 03:05:07;;;;;;;7.03;5.50;;;;;;;9.68;55.29;96660.28;5077938;28;20503;-71
2024/01/01 03:07:33;;;;;;;7.10;5.00;;;;;;;9.65;55.24;96664.03;5075047;28;20233;-69
2024/01/01 03:09:59;;;;;;;10.77;5.43;;;;;;;9.58;55.34;96668.25;5057320;28;20433;-72
2024/01/01 03:12:24;;;;;;;9.30;5.40;;;;;;;9.58;55.38;96665.66;5072010;28;20539;-70
2024/01/01 03:14:50;;;;;;;11.20;4.93;;;;;;;9.48;55.40;96672.81;5072151;28;20711;-71
2024/01/01 03:17:15;;;;;;;10.37;6.40;;;;;;;9.48;55.95;96668.41;5087049;28;20794;-70
2024/01/01 03:19:41;;;;;;;6.87;5.40;;;;;;;9.52;55.91;96667.09;5080721;28;20178;-72
2024/01/01 03:22:06;;;;;;;8.70;5.60;;;;;;;9.61;56.11;96680.22;5086330;28;20189;-70
2024/01/01 03:24:32;;;;;;;10.50;4.70;;;;;;;9.54;55.94;96680.03;5080334;28;20261;-71
2024/01/01 03:26:57;;;;;;;10.63;5.53;;;;;;;9.64;55.54;96688.56;5076241;28;20243;-71
2024/01/01 03:29:23;;;;;;;11.67;5.27;;;;;;;9.73;55.47;96688.59;5078337;28;20684;-70
2024/01/01 03:31:48;;;;;;;8.40;5.03;;;;;;;9.62;56.01;96682.66;5073437;28;20758;-70
2024/01/01 03:34:14;;;;;;;7.10;4.80;;;;;;;9.75;55.52;96691.88;5082943;28;20266;-71
2024/01/01 03:36:39;;;;;;;7.20;4.60;;;;;;;9.71;55.15;96691.38;5077178;28;20193;-71
2024/01/01 03:39:05;;;;;;;9.17;4.43;;;;;;;9.42;56.30;96684.72;5078773;28;20174;-70
2024/01/01 03:41:30;;;;;;;6.03;4.40;;;;;;;9.59;56.17;96685.59;5080924;28;20198;-70
2024/01/01 03:43:58;;;;;;;7.13;4.20;;;;;;;9.71;55.85;96688.75;5053380;28;20170;-71
2024/01/01 03:46:24;;;;;;;8.57;4.13;;;;;;;9.71;56.30;96682.69;5063375;28;20312;-71
2024/01/01 03:48:49;;;;;;;8.60;4.30;;;;;;;9.56;56.00;96692.94;5073446;28;21014;-71
2024/01/01 03:51:15;;;;;;;4.33;3.37;;;;;;;9.63;55.99;96688.75;5077990;28;20316;-70
2024/01/01 03:53:41;;;;;;;4.90;3.67;;;;;;;9.63;56.08;96691.34;5078615;28;20186;-71
2024/01/01 03:56:06;;;;;;;5.90;3.30;;;;;;;9.53;56.46;96689.66;5083925;28;20623;-70
2024/01/01 03:58:32;;;;;;;6.03;3.77;;;;;;;9.59;56.03;96697.88;5080173;28;20183;-69
2024/01/01 04:00:57;;;;;;;5.53;3.27;;;;;;;9.58;56.18;96697.03;5075258;28;20323;-70
2024/01/01 04:03:23;;;;;;;8.53;4.43;;;;;;;9.51;56.13;96688.19;5080693;28;20181;-69
2024/01/01 04:05:48;;;;;;;11.33;3.80;;;;;;;9.36;56.00;96693.22;5070069;28;20214;-69
2024/01/01 04:08:14;;;;;;;6.87;4.07;;;;;;;9.51;56.10;96691.63;5083293;28;20173;-70
2024/01/01 04:10:39;;;;;;;4.53;3.13;;;;;;;9.45;56.11;96694.88;5079341;28;20689;-69
2024/01/01 04:13:05;;;;;;;4.20;3.27;;;;;;;9.42;56.51;96704.84;5083139;28;20181;-70
2024/01/01 04:15:30;;;;;;;5.70;3.50;;;;;;;9.28;56.92;96707.06;5070980;28;20206;-70
2024/01/01 04:17:55;;;;;;;6.70;3.47;;;;;;;9.32;56.75;96711.03;5070506;28;20293;-70
2024/01/01 04:20:21;;;;;;;8.13;3.43;;;;;;;9.26;56.39;96714.25;5082507;28;20219;-70
2024/01/01 04:22:51;;;;;;;4.33;2.90;;;;;;;9.36;56.82;96701.88;5079887;28;20285;-70
2024/01/01 04:25:19;;;;;;;5.93;2.87;;;;;;;9.38;56.15;96715.63;5076657;28;20305;-71
2024/01/01 04:27:45;;;;;;;6.00;2.90;;;;;;;9.42;56.00;96708.25;5079591;28;21175;-71
2024/01/01 04:30:10;;;;;;;7.10;2.73;;;;;;;9.45;56.35;96712.38;5075603;28;20419;-70
2024/01/01 04:32:36;;;;;;;5.43;2.50;;;;;;;9.40;56.49;96709.41;5068998;28;20619;-71
2024/01/01 04:35:05;;;;;;;5.37;2.47;;;;;;;9.47;55.96;96710.41;5018654;28;20270;-71
2024/01/01 04:37:30;;;;;;;5.90;2.20;;;;;;;9.20;56.59;96709.63;5059937;28;20245;-71
2024/01/01 04:39:56;;;;;;;5.77;2.13;;;;;;;9.45;56.46;96707.97;5060941;28;20453;-71
2024/01/01 04:42:21;;;;;;;7.00;2.70;;;;;;;9.43;56.69;96703.88;5058118;28;20217;-70
2024/01/01 04:44:46;;;;;;;3.60;1.90;;;;;;;9.53;56.34;96702.75;5059479;28;20212;-71
2024/01/01 04:47:12;;;;;;;5.03;2.10;;;;;;;9.58;55.88;96691.81;5073301;28;20191;-70
2024/01/01 04:49:38;;;;;;;5.07;2.00;;;;;;;9.58;55.58;96696.22;5061522;28;20210;-70
2024/01/01 04:52:04;;;;;;;5.43;1.83;;;;;;;9.62;55.33;96700.19;5057010;28;20186;-71
2024/01/01 04:54:29;;;;;;;2.93;2.00;;;;;;;9.61;55.59;96696.72;5050935;28;20427;-70
2024/01/01 04:56:55;;;;;;;2.80;1.60;;;;;;;9.55;55.26;96710.47;5067661;28;20203;-72
2024/01/01 04:59:20;;;;;;;5.93;2.03;;;;;;;9.61;55.50;96707.19;5054540;28;20185;-70
2024/01/01 05:01:45;;;;;;;5.30;1.63;;;;;;;9.61;55.15;96717.66;5073154;28;20176;-71
2024/01/01 05:04:11;;;;;;;3.20;2.30;;;;;;;9.55;55.42;96718.31;5060268;28;20183;-71
2024/01/01 05:06:36;;;;;;;6.20;2.20;;;;;;;9.53;55.26;96722.88;5070585;28;20712;-70
2024/01/01 05:09:02;;;;;;;3.40;1.57;;;;;;;9.60;55.26;96723.88;5059930;28;20201;-71
2024/01/01 05:11:29;;;;;;;4.93;2.20;;;;;;;9.63;55.13;96722.75;5066543;28;20187;-70
2024/01/01 05:13:54;;;;;;;2.90;1.40;;;;;;;9.63;55.06;96731.41;5054417;28;20181;-70
2024/01/01 05:16:20;;;;;;;5.23;1.40;;;;;;;9.52;54.86;96734.31;5063266;28;20452;-70
2024/01/01 05:18:45;;;;;;;1.83;1.17;;;;;;;9.43;54.85;96732.63;5060903;28;20213;-71
2024/01/01 05:21:11;;;;;;;7.77;1.40;;;;;;;9.40;54.62;96731.13;5080163;28;20725;-70
2024/01/01 05:23:36;;;;;;;4.40;1.17;;;;;;;9.56;54.52;96738.25;5066661;28;20193;-70
2024/01/01 05:26:03;;;;;;;3.13;1.03;;;;;;;9.55;54.21;96738.41;5068605;28;20206;-70
2024/01/01 05:28:28;;;;;;;3.70;1.13;;;;;;;9.59;54.22;96730.06;5058552;28;20191;-70
2024/01/01 05:30:53;;;;;;;3.27;1.13;;;;;;;9.50;54.48;96742.31;5076454;28;20434;-71
2024/01/01 05:33:19;;;;;;;3.10;1.50;;;;;;;9.49;54.72;96750.31;5072944;28;20277;-70
2024/01/01 05:35:44;;;;;;;3.43;1.20;;;;;;;9.49;55.05;96737.22;5065137;28;20213;-71
2024/01/01 05:38:10;;;;;;;7.37;1.53;;;;;;;9.53;55.22;96742.00;5070127;28;20301;-71
2024/01/01 05:40:38;;;;;;;5.17;1.37;;;;;;;9.55;54.87;96748.84;5063631;28;20182;-71
2024/01/01 05:43:04;;;;;;;2.60;1.43;;;;;;;9.60;54.79;96757.88;5074537;28;20556;-70
2024/01/01 05:45:29;;;;;;;10.67;1.97;;;;;;;9.59;54.74;96758.03;5057453;28;20422;-69
2024/01/01 05:47:55;;;;;;;3.67;1.40;;;;;;;9.58;55.09;96765.06;5078029;28;20215;-70
2024/01/01 05:50:21;;;;;;;7.60;1.70;;;;;;;9.50;54.74;96765.88;5069246;28;20187;-69
2024/01/01 05:52:47;;;;;;;4.67;1.77;;;;;;;9.57;55.46;96773.91;5063402;28;20213;-71
2024/01/01 05:55:12;;;;;;;7.73;1.50;;;;;;;9.54;55.04;96771.59;5072868;28;20917;-71
2024/01/01 05:57:38;;;;;;;5.40;1.20;;;;;;;9.56;55.01;96772.28;5055444;28;20211;-69
2024/01/01 06:00:04;;;;;;;3.30;1.10;;;;;;;9.53;55.12;96775.19;5071593;28;20174;-70
2024/01/01 06:02:30;;;;;;;3.30;1.13;;;;;;;9.48;55.21;96774.81;5076788;28;20182;-70
2024/01/01 06:04:55;;;;;;;3.77;1.10;;;;;;;9.51;54.71;96777.13;5074954;28;20432;-70
2024/01/01 06:07:20;;;;;;;2.53;1.00;;;;;;;9.44;55.20;96765.66;5063391;28;20273;-70
2024/01/01 06:09:46;;;;;;;4.57;1.23;;;;;;;9.47;55.02;96770.56;5061397;28;20202;-71
2024/01/01 06:12:11;;;;;;;5.00;1.57;;;;;;;9.42;54.56;96773.66;5065174;28;20269;-70
2024/01/01 06:14:37;;;;;;;3.47;1.43;;;;;;;9.46;54.36;96776.78;5052328;28;20561;-70
2024/01/01 06:17:02;;;;;;;7.73;2.00;;;;;;;9.31;54.30;96772.16;5072123;28;20379;-70
2024/01/01 06:19:28;;;;;;;5.60;1.40;;;;;;;9.35;54.02;96781.31;5082246;28;20192;-70
2024/01/01 06:21:53;;;;;;;4.77;1.10;;;;;;;9.44;53.90;96789.22;5067829;28;20700;-70
2024/01/01 06:24:19;;;;;;;4.30;1.30;;;;;;;9.41;54.08;96786.91;5070115;28;20183;-70
2024/01/01 06:26:44;;;;;;;4.13;1.40;;;;;;;9.45;53.36;96789.03;5065992;28;20204;-70
2024/01/01 06:29:10;;;;;;;5.10;1.53;;;;;;;9.38;53.95;96781.00;5059120;28;20191;-70
2024/01/01 06:31:35;;;;;;;10.60;1.50;;;;;;;9.28;53.94;96785.53;5060004;28;20274;-71
2024/01/01 06:34:02;;;;;;;6.23;1.73;;;;;;;9.38;53.79;96791.47;5035642;28;20210;-70
2024/01/01 06:36:27;;;;;;;3.27;1.33;;;;;;;9.37;53.34;96792.44;5057929;28;20738;-70
2024/01/01 06:38:52;;;;;;;4.83;1.47;;;;;;;9.51;53.38;96795.44;5072721;28;20416;-71
2024/01/01 06:41:18;;;;;;;6.20;1.43;;;;;;;9.46;53.61;96801.16;5066086;28;20662;-71
2024/01/01 06:43:43;;;;;;;2.20;1.10;;;;;;;9.48;53.10;96806.22;5057576;28;20205;-71
2024/01/01 06:46:11;;;;;;;5.53;1.20;;;;;;;9.31;53.60;96819.22;5062543;28;20265;-70
2024/01/01 06:48:36;;;;;;;3.40;1.40;;;;;;;9.35;54.45;96819.72;5040354;28;20206;-70
2024/01/01 06:51:01;;;;;;;2.17;1.57;;;;;;;9.41;54.47;96820.91;5060559;28;20532;-72
2024/01/01 06:53:27;;;;;;;5.70;1.90;;;;;;;9.43;54.01;96814.53;5066746;28;20682;-70
2024/01/01 06:55:53;;;;;;;3.00;1.27;;;;;;;9.36;54.45;96809.09;5059252;28;20224;-69
2024/01/01 06:58:18;;;;;;;4.73;1.30;;;;;;;9.28;54.95;96824.75;5077444;28;20292;-69
2024/01/01 07:00:44;;;;;;;7.53;1.30;;;;;;;8.95;55.59;96806.19;5070271;28;20183;-72
2024/01/01 07:03:09;;;;;;;3.77;1.60;;;;;;;8.99;55.58;96807.53;5065453;28;20214;-71
2024/01/01 07:05:34;;;;;;;4.53;1.30;;;;;;;9.15;54.91;96806.03;5060221;28;20718;-70
2024/01/01 07:08:00;;;;;;;6.07;1.47;;;;;;;9.02;55.18;96804.63;5055993;28;20332;-70
2024/01/01 07:10:25;;;;;;;3.50;1.30;;;;;;;9.08;55.42;96816.28;5060594;28;20198;-70
2024/01/01 07:12:51;;;;;;;9.80;1.57;;;;;;;9.20;54.89;96827.28;5061687;28;20182;-70
2024/01/01 07:15:16;;;;;;;5.93;2.07;;;;;;;9.09;55.25;96823.13;5058843;28;20265;-69
2024/01/01 07:17:42;;;;;;;4.97;1.60;;;;;;;8.99;55.44;96838.91;5059420;28;20210;-71
2024/01/01 07:20:10;;;;;;;5.33;1.40;;;;;;;9.11;55.40;96842.13;5075682;28;20257;-71
2024/01/01 07:22:35;;;;;;;5.93;1.37;;;;;;;9.12;55.08;96856.00;5078004;28;20838;-70
2024/01/01 07:25:02;;;;;;;3.90;1.57;;;;;;;8.91;55.20;96867.59;5085904;28;20416;-70
2024/01/01 07:27:28;;;;;;;4.23;1.50;;;;;;;9.02;55.23;96864.75;5080893;28;20200;-70
2024/01/01 07:29:53;;;;;;;3.50;1.20;;;;;;;9.03;54.96;96861.16;5084939;28;20731;-69
2024/01/01 07:32:19;;;;;;;7.47;1.50;;;;;;;9.12;55.18;96856.00;5081175;28;20189;-69
2024/01/01 07:34:44;;;;;;;3.07;1.30;;;;;;;9.12;54.99;96850.75;5078467;28;20316;-70
2024/01/01 07:37:11;;;;;;;3.30;1.60;;;;;;;9.09;54.85;96858.91;5072664;28;20294;-69
2024/01/01 07:39:36;;;;;;;5.07;1.47;;;;;;;9.02;54.74;96856.06;5071949;28;20550;-69
2024/01/01 07:42:01;;;;;;;9.70;1.93;;;;;;;9.07;54.76;96853.84;5068870;28;20456;-70
2024/01/01 07:44:27;;;;;;;3.20;1.53;;;;;;;9.01;55.14;96857.88;5056841;28;21153;-71
2024/01/01 07:46:52;;;;;;;5.10;1.63;;;;;;;8.95;55.52;96857.66;5079143;28;20276;-71
2024/01/01 07:49:18;;;;;;;4.93;1.57;;;;;;;8.90;54.88;96850.28;5078448;28;20593;-69
2024/01/01 07:51:43;;;;;;;5.07;1.77;;;;;;;9.11;55.22;96839.50;5075579;28;20179;-70
2024/01/01 07:54:09;;;;;;;4.87;1.47;;;;;;;9.16;55.11;96849.50;5084333;28;20228;-70
2024/01/01 07:56:37;;;;;;;13.03;1.60;;;;;;;9.15;55.27;96853.88;5072311;28;20404;-69
2024/01/01 07:59:03;;;;;;;3.13;1.63;;;;;;;9.25;54.66;96864.28;5085150;28;20412;-70
2024/01/01 08:01:28;;;;;;;6.30;1.77;;;;;;;9.26;54.21;96855.44;5074442;28;20427;-70
2024/01/01 08:03:54;;;;;;;4.13;1.57;;;;;;;9.33;54.33;96866.94;5084805;28;20633;-70
2024/01/01 08:06:20;;;;;;;4.93;1.77;;;;;;;9.51;54.24;96859.03;5080226;28;20221;-69
2024/01/01 08:08:45;;;;;;;6.07;1.87;;;;;;;9.58;53.83;96859.25;5077772;28;20186;-70
2024/01/01 08:11:11;;;;;;;5.77;1.70;;;;;;;9.53;54.13;96871.97;5065350;28;20265;-70
2024/01/01 08:13:36;;;;;;;6.00;1.37;;;;;;;9.49;54.63;96871.47;5067942;28;20247;-69
2024/01/01 08:16:02;;;;;;;2.30;1.40;;;;;;;9.50;54.27;96867.06;5064727;28;20210;-69
2024/01/01 08:18:28;;;;;;;6.93;1.73;;;;;;;9.58;54.51;96861.88;5068424;28;20297;-71
2024/01/01 08:20:54;;;;;;;7.47;2.10;;;;;;;9.62;55.41;96876.28;5076549;28;20816;-69
2024/01/01 08:23:20;;;;;;;6.70;1.63;;;;;;;10.11;54.76;96887.97;5076449;28;20178;-70
2024/01/01 08:25:45;;;;;;;3.70;1.13;;;;;;;10.76;53.04;96883.97;5082468;28;20436;-70
2024/01/01 08:28:10;;;;;;;4.73;1.80;;;;;;;11.05;52.52;96887.94;5073056;28;20182;-70
2024/01/01 08:30:38;;;;;;;11.10;2.00;;;;;;;11.46;51.72;96876.59;5083645;28;20724;-72
2024/01/01 08:33:04;;;;;;;7.37;1.47;;;;;;;11.74;50.46;96881.50;5052306;28;20169;-70
2024/01/01 08:35:31;;;;;;;4.17;1.67;;;;;;;12.22;49.32;96876.28;5064598;28;20449;-70
2024/01/01 08:37:57;;;;;;;13.30;1.67;;;;;;;12.65;48.43;96878.53;5074446;28;20464;-71
2024/01/01 08:40:22;;;;;;;2.80;1.50;;;;;;;12.73;47.71;96879.28;5081226;28;20420;-70
2024/01/01 08:42:48;;;;;;;8.60;2.23;;;;;;;12.96;46.95;96881.13;5082642;28;20189;-70
2024/01/01 08:45:16;;;;;;;7.83;1.57;;;;;;;12.85;47.80;96881.53;5071598;28;20186;-71
2024/01/01 08:47:41;;;;;;;7.40;1.70;;;;;;;13.18;46.69;96876.03;5078211;28;20197;-73
2024/01/01 08:50:07;;;;;;;5.33;1.53;;;;;;;13.17;46.11;96874.41;5069366;28;20513;-71
2024/01/01 08:52:32;;;;;;;6.73;1.23;;;;;;;13.09;46.50;96870.00;5071722;28;20182;-71
2024/01/01 08:54:57;;;;;;;4.70;1.30;;;;;;;12.85;46.70;96871.81;5070900;28;20196;-70
2024/01/01 08:57:23;;;;;;;5.23;1.30;;;;;;;12.54;46.85;96870.03;5068078;28;20232;-70
2024/01/01 08:59:48;;;;;;;3.67;1.40;;;;;;;12.55;47.13;96869.03;5074927;28;20183;-70
2024/01/01 09:02:15;;;;;;;3.77;1.00;;;;;;;12.22;47.47;96861.34;5066612;28;20654;-70
2024/01/01 09:04:40;;;;;;;3.90;1.40;;;;;;;12.48;47.42;96867.28;5071108;28;20182;-71
2024/01/01 09:07:06;;;;;;;5.07;1.37;;;;;;;12.75;46.67;96869.41;5075133;28;20808;-71
2024/01/01 09:09:31;;;;;;;6.57;1.60;;;;;;;13.10;46.15;96865.59;5071539;28;20210;-71
2024/01/01 09:11:57;;;;;;;3.20;1.10;;;;;;;13.40;45.30;96868.31;5057857;28;20213;-71
2024/01/01 09:14:22;;;;;;;3.53;1.50;;;;;;;13.71;45.17;96862.91;5047553;28;20210;-71
2024/01/01 09:16:49;;;;;;;4.20;1.60;;;;;;;14.06;43.96;96872.91;5037950;28;1085520;-70
2024/01/01 09:19:15;;;;;;;2.70;1.03;;;;;;;14.36;43.00;96876.34;5064174;28;20208;-68
2024/01/01 09:21:41;;;;;;;4.03;1.30;;;;;;;14.40;42.20;96882.03;5075673;28;20424;-69
2024/01/01 09:24:09;;;;;;;8.23;1.57;;;;;;;14.35;41.88;96885.25;5076106;28;20767;-71
2024/01/01 09:26:35;;;;;;;5.97;2.53;;;;;;;14.64;42.39;96890.63;5065375;28;20211;-72
2024/01/01 09:29:07;;;;;;;4.20;1.20;;;;;;;14.60;41.66;96892.81;5076292;28;20483;-70
2024/01/01 09:31:32;;;;;;;3.80;1.30;;;;;;;14.27;41.87;96894.06;5020613;28;20421;-71
2024/01/01 09:34:00;;;;;;;4.17;1.30;;;;;;;14.36;41.81;96899.25;5079929;28;20423;-71
2024/01/01 09:36:33;;;;;;;5.20;1.33;;;;;;;14.40;42.20;96911.03;5068668;28;20207;-71
2024/01/01 09:38:59;;;;;;;2.53;1.17;;;;;;;14.05;42.46;96900.25;5076071;28;20452;-73
2024/01/01 09:41:25;;;;;;;5.23;1.70;;;;;;;13.96;42.33;96896.88;5048645;28;20433;-72
2024/01/01 09:43:52;;;;;;;3.60;1.00;;;;;;;14.18;42.08;96905.72;5066289;28;20262;-73
2024/01/01 09:46:18;;;;;;;7.13;1.30;;;;;;;13.83;42.24;96900.16;5043227;28;20463;-74
2024/01/01 09:48:46;;;;;;;3.10;1.20;;;;;;;13.85;42.44;96908.72;5042383;28;20421;-73
2024/01/01 09:51:13;;;;;;;5.37;1.40;;;;;;;13.71;42.52;96914.78;5068172;28;20210;-71
2024/01/01 09:53:39;;;;;;;2.40;1.00;;;;;;;13.82;42.71;96909.06;5059397;28;20520;-72
2024/01/01 09:56:04;;;;;;;5.80;1.43;;;;;;;13.79;42.67;96909.41;5072245;28;20449;-72
2024/01/01 09:58:42;;;;;;;3.40;1.17;;;;;;;14.16;41.94;96896.34;5059716;28;20487;-72
2024/01/01 10:01:09;;;;;;;3.33;0.90;;;;;;;14.04;42.03;96896.81;5052035;28;20646;-73
2024/01/01 10:03:34;;;;;;;2.47;1.00;;;;;;;14.38;41.39;96902.50;5074466;28;20968;-73
2024/01/01 10:06:07;;;;;;;4.17;1.20;;;;;;;14.42;40.92;96888.78;5051727;28;20529;-72
2024/01/01 10:08:33;;;;;;;2.20;1.03;;;;;;;14.43;40.91;96881.69;5069522;28;20381;-72
2024/01/01 10:10:58;;;;;;;3.10;1.07;;;;;;;14.90;40.58;96887.50;5070419;28;20516;-70
2024/01/01 10:13:24;;;;;;;10.50;2.80;;;;;;;15.16;40.03;96889.56;5052192;28;20197;-72
2024/01/01 10:15:55;;;;;;;4.13;1.20;;;;;;;15.43;38.59;96889.81;5066594;28;20215;-73
2024/01/01 10:18:21;;;;;;;5.57;1.23;;;;;;;15.13;38.97;96889.94;5047564;28;20210;-73
2024/01/01 10:20:46;;;;;;;3.27;1.20;;;;;;;14.84;39.77;96899.63;5071084;28;21189;-72
2024/01/01 10:23:21;;;;;;;8.00;1.87;;;;;;;14.94;39.45;96898.50;5040705;28;20248;-73
2024/01/01 10:25:49;;;;;;;7.30;2.90;;;;;;;15.32;39.16;96906.16;5048918;28;20198;-73
2024/01/01 10:28:24;;;;;;;3.33;1.27;;;;;;;15.00;39.27;96909.13;5048038;28;20440;-72
2024/01/01 10:30:50;;;;;;;4.27;0.97;;;;;;;15.09;38.63;96915.09;5047364;28;20425;-73
2024/01/01 10:33:16;;;;;;;8.20;2.73;;;;;;;15.34;39.03;96907.59;5053317;28;20434;-73
2024/01/01 10:35:41;;;;;;;7.20;2.70;;;;;;;15.55;38.54;96899.84;5038999;28;20187;-73
2024/01/01 10:38:07;;;;;;;5.60;1.30;;;;;;;15.42;38.25;96908.50;5070499;28;20252;-73
2024/01/01 10:40:32;;;;;;;5.20;1.83;;;;;;;15.51;37.86;96916.06;5059539;28;20268;-73
2024/01/01 10:42:58;;;;;;;5.87;1.20;;;;;;;15.55;37.66;96911.25;5074446;28;20625;-72
2024/01/01 10:45:24;;;;;;;4.03;1.17;;;;;;;15.80;38.00;96911.63;5065315;28;20182;-72
2024/01/01 10:47:52;;;;;;;3.93;1.40;;;;;;;15.71;37.37;96923.34;5073458;28;20222;-73
2024/01/01 10:50:28;;;;;;;9.80;1.57;;;;;;;15.27;38.13;96933.13;5058485;28;20189;-73
2024/01/01 10:53:21;;;;;;;6.27;1.70;;;;;;;15.19;38.10;96934.06;5068558;28;20420;-71
2024/01/01 10:55:56;;;;;;;3.97;1.10;;;;;;;15.31;38.20;96925.66;5080701;28;20464;-73
2024/01/01 10:58:30;;;;;;;4.27;1.33;;;;;;;14.90;38.59;96930.53;5063792;28;20458;-72
2024/01/01 11:01:02;;;;;;;3.10;1.10;;;;;;;14.55;38.97;96938.22;5061189;28;20418;-72
2024/01/01 11:03:30;;;;;;;3.23;1.20;;;;;;;13.93;40.22;96921.78;5067698;28;20508;-72
2024/01/01 11:05:55;;;;;;;6.10;1.97;;;;;;;13.95;40.31;96914.53;5045167;28;20533;-73
2024/01/01 11:08:27;;;;;;;8.43;2.30;;;;;;;13.89;40.57;96917.88;5058896;28;20507;-71
2024/01/01 11:10:54;;;;;;;4.63;1.80;;;;;;;13.83;40.58;96915.97;5058699;28;20189;-71
2024/01/01 11:13:26;;;;;;;7.43;2.13;;;;;;;13.69;40.57;96929.94;5069029;28;20459;-72
2024/01/01 11:16:03;;;;;;;8.07;1.33;;;;;;;13.69;40.46;96932.56;5060543;28;20940;-72
2024/01/01 11:18:36;;;;;;;6.37;1.63;;;;;;;13.63;40.62;96932.25;5065898;28;20459;-72
2024/01/01 11:21:06;;;;;;;6.93;1.93;;;;;;;13.47;41.02;96925.34;5060106;28;20433;-72
2024/01/01 11:23:45;;;;;;;6.30;2.67;;;;;;;13.27;41.30;96924.97;5058746;28;20428;-71
2024/01/01 11:26:22;;;;;;;10.33;2.93;;;;;;;13.61;40.85;96920.28;5061072;28;20453;-72
2024/01/01 11:28:52;;;;;;;6.00;1.60;;;;;;;13.32;41.19;96924.44;5067108;28;20888;-72
2024/01/01 11:31:17;;;;;;;11.23;1.87;;;;;;;13.37;41.21;96915.00;5062561;28;20409;-70